createdAt,value
2019-03-21T16:31:54.266Z,0
2019-03-21T16:31:58.498Z,0
2019-03-21T16:32:03.741Z,0
2019-03-21T16:32:08.213Z,0
2019-03-21T16:32:12.473Z,0
2019-03-21T16:32:16.752Z,0
2019-03-21T16:32:21.099Z,0
2019-03-21T16:32:25.760Z,0
2019-03-21T16:32:30.087Z,0
2019-03-21T16:32:56.641Z,0
2019-03-21T16:33:00.899Z,21.824646
2019-03-21T16:33:05.159Z,21.945496
2019-03-21T16:33:09.422Z,22.066345
2019-03-21T16:33:13.799Z,22.136841
2019-03-21T16:33:17.966Z,22.197266
2019-03-21T16:33:22.226Z,22.227478
2019-03-21T16:33:26.514Z,22.267761
2019-03-21T16:33:30.762Z,22.277832
2019-03-21T16:33:35.088Z,22.287903
2019-03-21T16:33:39.355Z,22.277832
2019-03-21T16:33:44.577Z,22.277832
2019-03-21T16:33:48.820Z,22.24762
2019-03-21T16:33:53.087Z,22.217407
2019-03-21T16:33:57.412Z,22.197266
2019-03-21T16:34:01.661Z,22.167053
2019-03-21T16:34:05.882Z,22.12677
2019-03-21T16:34:10.141Z,22.116699
2019-03-21T16:34:14.391Z,22.086487
2019-03-21T16:34:18.673Z,22.056274
2019-03-21T16:34:22.922Z,22.015991
2019-03-21T16:34:27.278Z,21.985779
2019-03-21T16:34:31.526Z,21.965637
2019-03-21T16:34:35.829Z,21.945496
2019-03-21T16:34:40.016Z,21.905212
2019-03-21T16:34:44.309Z,21.895142
2019-03-21T16:34:49.543Z,21.824646
2019-03-21T16:34:53.816Z,21.814575
2019-03-21T16:34:58.099Z,21.784363
2019-03-21T16:35:02.321Z,21.764221
2019-03-21T16:35:06.594Z,21.713867
2019-03-21T16:35:10.892Z,21.713867
2019-03-21T16:35:15.082Z,21.673584
2019-03-21T16:35:19.354Z,21.663513
2019-03-21T16:35:23.622Z,21.633301
2019-03-21T16:35:27.990Z,21.603088
2019-03-21T16:35:32.176Z,21.572876
2019-03-21T16:35:36.411Z,21.562805
2019-03-21T16:35:40.695Z,21.532593
2019-03-21T16:35:44.999Z,21.512451
2019-03-21T16:35:49.239Z,21.50238
2019-03-21T16:35:53.519Z,21.482239
2019-03-21T16:35:57.799Z,21.462097
2019-03-21T16:36:02.050Z,21.452026
2019-03-21T16:36:06.349Z,21.411743
2019-03-21T16:36:10.660Z,21.411743
2019-03-21T16:36:14.895Z,21.391602
2019-03-21T16:36:19.066Z,21.381531
2019-03-21T16:36:23.469Z,21.361389
2019-03-21T16:36:27.659Z,21.341248
2019-03-21T16:36:31.962Z,21.321106
2019-03-21T16:36:36.222Z,21.321106
2019-03-21T16:36:40.445Z,21.290894
2019-03-21T16:36:44.782Z,21.270752
2019-03-21T16:36:48.984Z,21.24054
2019-03-21T16:36:53.269Z,21.230469
2019-03-21T16:36:57.533Z,21.230469
2019-03-21T16:37:01.792Z,21.230469
2019-03-21T16:37:06.123Z,21.190186
2019-03-21T16:37:11.950Z,21.190186
2019-03-21T16:37:14.554Z,21.170044
2019-03-21T16:37:18.816Z,21.190186
2019-03-21T16:37:23.076Z,21.170044
2019-03-21T16:37:27.410Z,21.159973
2019-03-21T16:37:31.609Z,21.139832
2019-03-21T16:37:35.922Z,21.129761
2019-03-21T16:37:40.144Z,21.139832
2019-03-21T16:37:44.474Z,21.139832
2019-03-21T16:37:48.675Z,21.139832
2019-03-21T16:37:52.943Z,21.139832
2019-03-21T16:37:57.288Z,21.129761
2019-03-21T16:38:01.466Z,21.139832
2019-03-21T16:38:05.736Z,21.129761
2019-03-21T16:38:10.001Z,21.129761
2019-03-21T16:38:14.285Z,21.109619
2019-03-21T16:38:18.535Z,21.109619
2019-03-21T16:38:22.802Z,21.109619
2019-03-21T16:38:27.064Z,21.109619
2019-03-21T16:38:31.329Z,21.079407
2019-03-21T16:38:35.682Z,21.079407
2019-03-21T16:38:39.925Z,21.079407
2019-03-21T16:38:44.157Z,21.079407
2019-03-21T16:38:48.400Z,21.059265
2019-03-21T16:38:52.661Z,21.049194
2019-03-21T16:38:56.990Z,21.049194
2019-03-21T16:39:01.172Z,21.059265
2019-03-21T16:39:05.445Z,21.039124
2019-03-21T16:39:09.763Z,21.039124
2019-03-21T16:39:14.053Z,21.018982
2019-03-21T16:39:18.240Z,21.008911
2019-03-21T16:39:22.503Z,21.008911
2019-03-21T16:39:26.794Z,21.008911
2019-03-21T16:39:31.107Z,20.98877
2019-03-21T16:39:35.348Z,20.98877
2019-03-21T16:39:39.567Z,20.978699
2019-03-21T16:39:43.832Z,20.98877
2019-03-21T16:39:48.100Z,20.978699
2019-03-21T16:39:52.360Z,20.978699
2019-03-21T16:39:56.629Z,20.958557
2019-03-21T16:40:00.993Z,20.958557
2019-03-21T16:40:05.208Z,20.958557
2019-03-21T16:40:09.534Z,20.948486
2019-03-21T16:40:14.687Z,20.948486
2019-03-21T16:40:19.069Z,20.948486
2019-03-21T16:40:23.229Z,20.948486
2019-03-21T16:40:27.594Z,20.958557
2019-03-21T16:40:31.819Z,20.948486
2019-03-21T16:40:36.007Z,20.958557
2019-03-21T16:40:40.269Z,20.948486
2019-03-21T16:40:44.547Z,20.958557
2019-03-21T16:40:48.810Z,20.958557
2019-03-21T16:40:53.103Z,20.948486
2019-03-21T16:40:57.400Z,20.948486
2019-03-21T16:41:01.748Z,20.948486
2019-03-21T16:41:06.205Z,20.948486
2019-03-21T16:41:10.294Z,20.948486
2019-03-21T16:41:14.681Z,20.948486
2019-03-21T16:41:18.888Z,20.928345
2019-03-21T16:41:23.147Z,20.948486
2019-03-21T16:41:27.243Z,20.948486
2019-03-21T16:41:31.616Z,20.928345
2019-03-21T16:41:35.741Z,20.928345
2019-03-21T16:41:39.991Z,20.908203
2019-03-21T16:41:44.251Z,20.948486
2019-03-21T16:41:48.512Z,20.928345
2019-03-21T16:41:52.779Z,20.948486
2019-03-21T16:41:57.116Z,20.958557
2019-03-21T16:42:01.308Z,20.958557
2019-03-21T16:42:05.570Z,20.958557
2019-03-21T16:42:09.847Z,20.958557
2019-03-21T16:42:14.488Z,20.978699
2019-03-21T16:42:19.526Z,20.98877
2019-03-21T16:42:24.778Z,21.008911
2019-03-21T16:42:29.158Z,20.98877
2019-03-21T16:42:33.422Z,21.008911
2019-03-21T16:42:38.727Z,21.008911
2019-03-21T16:42:42.991Z,21.008911
2019-03-21T16:42:46.956Z,21.008911
2019-03-21T16:42:51.247Z,21.018982
2019-03-21T16:42:55.476Z,21.018982
2019-03-21T16:42:59.754Z,21.008911
2019-03-21T16:43:05.510Z,20.98877
2019-03-21T16:43:08.307Z,21.008911
2019-03-21T16:43:12.732Z,20.98877
2019-03-21T16:43:16.962Z,20.978699
2019-03-21T16:43:21.309Z,20.978699
2019-03-21T16:43:25.686Z,20.978699
2019-03-21T16:43:29.917Z,20.958557
2019-03-21T16:43:34.320Z,20.958557
2019-03-21T16:43:38.272Z,20.978699
2019-03-21T16:43:42.464Z,20.958557
2019-03-21T16:43:46.695Z,20.948486
2019-03-21T16:43:51.282Z,20.948486
2019-03-21T16:43:55.802Z,20.928345
2019-03-21T16:43:59.727Z,20.948486
2019-03-21T16:44:03.816Z,20.908203
2019-03-21T16:44:07.956Z,20.908203
2019-03-21T16:44:12.209Z,20.908203
2019-03-21T16:44:16.474Z,20.908203
2019-03-21T16:44:20.730Z,20.908203
2019-03-21T16:44:24.994Z,20.898132
2019-03-21T16:44:29.300Z,20.898132
2019-03-21T16:44:33.528Z,20.898132
2019-03-21T16:44:37.782Z,20.898132
2019-03-21T16:44:42.053Z,20.888062
2019-03-21T16:44:46.313Z,20.888062
2019-03-21T16:44:50.663Z,20.888062
2019-03-21T16:44:54.896Z,20.888062
2019-03-21T16:45:00.351Z,20.888062
2019-03-21T16:45:04.400Z,20.86792
2019-03-21T16:45:08.675Z,20.86792
2019-03-21T16:45:12.941Z,20.86792
2019-03-21T16:45:17.201Z,20.86792
2019-03-21T16:45:22.468Z,20.857849
2019-03-21T16:45:26.771Z,20.837708
2019-03-21T16:45:31.002Z,20.857849
2019-03-21T16:45:35.260Z,20.837708
2019-03-21T16:45:39.525Z,20.837708
2019-03-21T16:45:43.790Z,20.837708
2019-03-21T16:45:48.052Z,20.837708
2019-03-21T16:45:53.377Z,20.827637
2019-03-21T16:45:57.571Z,20.837708
2019-03-21T16:46:01.839Z,20.837708
2019-03-21T16:46:06.098Z,20.837708
2019-03-21T16:46:10.368Z,20.827637
2019-03-21T16:46:14.733Z,20.827637
2019-03-21T16:46:18.916Z,20.827637
2019-03-21T16:46:23.146Z,20.827637
2019-03-21T16:46:27.416Z,20.827637
2019-03-21T16:46:31.884Z,20.827637
2019-03-21T16:46:36.087Z,20.837708
2019-03-21T16:46:40.293Z,20.827637
2019-03-21T16:46:44.645Z,20.837708
2019-03-21T16:46:48.865Z,20.807495
2019-03-21T16:46:53.170Z,20.807495
2019-03-21T16:46:57.427Z,20.807495
2019-03-21T16:47:01.661Z,20.807495
2019-03-21T16:47:06.013Z,20.827637
2019-03-21T16:47:10.195Z,20.797424
2019-03-21T16:47:14.552Z,20.827637
2019-03-21T16:47:18.736Z,20.807495
2019-03-21T16:47:23.010Z,20.807495
2019-03-21T16:47:27.269Z,20.797424
2019-03-21T16:47:31.525Z,20.807495
2019-03-21T16:47:35.823Z,20.787354
2019-03-21T16:47:40.049Z,20.797424
2019-03-21T16:47:44.316Z,20.797424
2019-03-21T16:47:48.589Z,20.797424
2019-03-21T16:47:52.838Z,20.797424
2019-03-21T16:47:57.211Z,20.797424
2019-03-21T16:48:01.391Z,20.787354
2019-03-21T16:48:08.896Z,20.797424
2019-03-21T16:48:10.875Z,20.797424
2019-03-21T16:48:15.149Z,20.787354
2019-03-21T16:48:19.409Z,20.787354
2019-03-21T16:48:23.662Z,20.797424
2019-03-21T16:48:27.919Z,20.787354
2019-03-21T16:48:32.187Z,20.787354
2019-03-21T16:48:36.527Z,20.787354
2019-03-21T16:48:40.790Z,20.787354
2019-03-21T16:48:44.975Z,20.787354
2019-03-21T16:48:49.239Z,20.797424
2019-03-21T16:48:53.513Z,20.797424
2019-03-21T16:48:57.769Z,20.787354
2019-03-21T16:49:02.033Z,20.787354
2019-03-21T16:49:06.302Z,20.797424
2019-03-21T16:49:10.557Z,20.787354
2019-03-21T16:49:14.821Z,20.807495
2019-03-21T16:49:19.089Z,20.797424
2019-03-21T16:49:23.351Z,20.827637
2019-03-21T16:49:27.620Z,20.807495
2019-03-21T16:49:31.913Z,20.807495
2019-03-21T16:49:36.147Z,20.827637
2019-03-21T16:49:40.410Z,20.807495
2019-03-21T16:49:44.680Z,20.807495
2019-03-21T16:49:48.949Z,20.807495
2019-03-21T16:49:53.212Z,20.807495
2019-03-21T16:49:57.491Z,20.807495
2019-03-21T16:50:01.758Z,20.797424
2019-03-21T16:50:06.007Z,20.807495
2019-03-21T16:50:10.299Z,20.807495
2019-03-21T16:50:14.539Z,20.827637
2019-03-21T16:50:18.798Z,20.807495
2019-03-21T16:50:23.073Z,20.827637
2019-03-21T16:50:27.347Z,20.827637
2019-03-21T16:50:31.616Z,20.807495
2019-03-21T16:50:35.888Z,20.827637
2019-03-21T16:50:40.191Z,20.827637
2019-03-21T16:50:44.411Z,20.827637
2019-03-21T16:50:48.674Z,20.837708
2019-03-21T16:50:52.944Z,20.837708
2019-03-21T16:50:57.227Z,20.857849
2019-03-21T16:51:02.959Z,20.857849
2019-03-21T16:51:05.775Z,20.837708
2019-03-21T16:51:09.995Z,20.857849
2019-03-21T16:51:14.267Z,20.857849
2019-03-21T16:51:18.529Z,20.857849
2019-03-21T16:51:22.791Z,20.86792
2019-03-21T16:51:27.057Z,20.86792
2019-03-21T16:51:31.327Z,20.86792
2019-03-21T16:51:35.586Z,20.888062
2019-03-21T16:51:39.862Z,20.888062
2019-03-21T16:51:44.126Z,20.908203
2019-03-21T16:51:48.385Z,20.908203
2019-03-21T16:51:52.653Z,20.908203
2019-03-21T16:51:56.916Z,20.908203
2019-03-21T16:52:01.179Z,20.908203
2019-03-21T16:52:05.451Z,20.908203
2019-03-21T16:52:09.713Z,20.908203
2019-03-21T16:52:13.980Z,20.908203
2019-03-21T16:52:18.243Z,20.928345
2019-03-21T16:52:22.510Z,20.908203
2019-03-21T16:52:26.774Z,20.898132
2019-03-21T16:52:31.038Z,20.928345
2019-03-21T16:52:35.303Z,20.888062
2019-03-21T16:52:39.567Z,20.908203
2019-03-21T16:52:43.885Z,20.898132
2019-03-21T16:52:48.152Z,20.898132
2019-03-21T16:52:52.414Z,20.898132
2019-03-21T16:52:56.684Z,20.898132
2019-03-21T16:53:00.942Z,20.898132
2019-03-21T16:53:05.211Z,20.898132
2019-03-21T16:53:09.477Z,20.898132
2019-03-21T16:53:13.742Z,20.898132
2019-03-21T16:53:18.010Z,20.898132
2019-03-21T16:53:22.272Z,20.898132
2019-03-21T16:53:26.540Z,20.888062
2019-03-21T16:53:30.795Z,20.888062
2019-03-21T16:53:35.072Z,20.86792
2019-03-21T16:53:39.331Z,20.888062
2019-03-21T16:53:44.594Z,20.898132
2019-03-21T16:53:48.855Z,20.898132
2019-03-21T16:53:53.123Z,20.898132
2019-03-21T16:53:57.389Z,20.908203
2019-03-21T16:54:01.761Z,20.908203
2019-03-21T16:54:16.388Z,20.908203
2019-03-21T16:54:16.802Z,20.928345
2019-03-21T16:54:17.641Z,20.928345
2019-03-21T16:54:20.672Z,20.928345
2019-03-21T16:54:24.954Z,20.908203
2019-03-21T16:54:30.277Z,20.908203
2019-03-21T16:54:33.463Z,20.928345
2019-03-21T16:54:37.721Z,20.928345
2019-03-21T16:54:43.082Z,20.928345
2019-03-21T16:54:47.241Z,20.928345
2019-03-21T16:54:51.512Z,20.908203
2019-03-21T16:54:55.773Z,20.908203
2019-03-21T16:55:00.040Z,20.928345
2019-03-21T16:55:05.572Z,20.908203
2019-03-21T16:55:08.560Z,20.948486
2019-03-21T16:55:12.830Z,20.928345
2019-03-21T16:55:17.153Z,20.948486
2019-03-21T16:55:21.833Z,20.928345
2019-03-21T16:55:26.737Z,20.948486
2019-03-21T16:55:31.416Z,20.958557
2019-03-21T16:55:35.291Z,20.978699
2019-03-21T16:55:39.412Z,20.978699
2019-03-21T16:55:43.673Z,20.978699
2019-03-21T16:55:48.124Z,21.008911
2019-03-21T16:55:52.196Z,21.008911
2019-03-21T16:55:56.534Z,21.018982
2019-03-21T16:56:00.868Z,21.018982
2019-03-21T16:56:05.197Z,21.018982
2019-03-21T16:56:09.858Z,21.049194
2019-03-21T16:56:14.108Z,21.049194
2019-03-21T16:56:18.192Z,21.059265
2019-03-21T16:56:22.575Z,21.049194
2019-03-21T16:56:26.788Z,21.059265
2019-03-21T16:56:30.769Z,21.079407
2019-03-21T16:56:35.045Z,21.049194
2019-03-21T16:56:39.300Z,21.059265
2019-03-21T16:56:43.566Z,21.079407
2019-03-21T16:56:47.836Z,21.079407
2019-03-21T16:56:52.103Z,21.059265
2019-03-21T16:56:56.366Z,21.059265
2019-03-21T16:57:01.212Z,21.059265
2019-03-21T16:57:05.087Z,21.049194
2019-03-21T16:57:09.446Z,21.049194
2019-03-21T16:57:14.599Z,21.039124
2019-03-21T16:57:17.750Z,21.039124
2019-03-21T16:57:22.020Z,21.039124
2019-03-21T16:57:26.223Z,21.039124
2019-03-21T16:57:30.496Z,21.018982
2019-03-21T16:57:34.754Z,21.039124
2019-03-21T16:57:39.017Z,21.018982
2019-03-21T16:57:43.288Z,21.039124
2019-03-21T16:57:47.554Z,21.018982
2019-03-21T16:57:52.231Z,21.018982
2019-03-21T16:57:56.647Z,21.039124
2019-03-21T16:58:00.829Z,21.039124
2019-03-21T16:58:05.027Z,21.039124
2019-03-21T16:58:08.987Z,21.039124
2019-03-21T16:58:13.214Z,21.039124
2019-03-21T16:58:17.507Z,21.049194
2019-03-21T16:58:21.810Z,21.059265
2019-03-21T16:58:25.992Z,21.059265
2019-03-21T16:58:30.303Z,21.039124
2019-03-21T16:58:34.527Z,21.059265
2019-03-21T16:58:38.748Z,21.049194
2019-03-21T16:58:43.011Z,21.059265
2019-03-21T16:58:47.276Z,21.049194
2019-03-21T16:58:51.546Z,21.039124
2019-03-21T16:58:56.096Z,21.039124
2019-03-21T16:59:01.065Z,21.039124
2019-03-21T16:59:05.331Z,21.049194
2019-03-21T16:59:09.602Z,21.049194
2019-03-21T16:59:13.867Z,21.049194
2019-03-21T16:59:18.129Z,21.049194
2019-03-21T16:59:22.402Z,21.049194
2019-03-21T16:59:26.661Z,21.039124
2019-03-21T16:59:30.927Z,21.049194
2019-03-21T16:59:35.196Z,21.049194
2019-03-21T16:59:39.458Z,21.049194
2019-03-21T16:59:43.727Z,21.059265
2019-03-21T16:59:47.989Z,21.059265
2019-03-21T16:59:52.259Z,21.079407
2019-03-21T16:59:56.523Z,21.079407
2019-03-21T17:00:00.787Z,21.079407
2019-03-21T17:00:05.054Z,21.079407
2019-03-21T17:00:09.314Z,21.059265
2019-03-21T17:00:13.582Z,21.059265
2019-03-21T17:00:18.841Z,21.059265
2019-03-21T17:00:23.106Z,21.049194
2019-03-21T17:00:27.373Z,21.079407
2019-03-21T17:00:31.646Z,21.049194
2019-03-21T17:00:35.911Z,21.049194
2019-03-21T17:00:40.170Z,21.049194
2019-03-21T17:00:44.445Z,21.049194
2019-03-21T17:00:48.722Z,21.049194
2019-03-21T17:00:52.978Z,21.049194
2019-03-21T17:00:57.250Z,21.049194
2019-03-21T17:01:01.512Z,21.059265
2019-03-21T17:01:05.766Z,21.039124
2019-03-21T17:01:10.035Z,21.059265
2019-03-21T17:01:14.305Z,21.039124
2019-03-21T17:01:18.571Z,21.049194
2019-03-21T17:01:22.835Z,21.039124
2019-03-21T17:01:27.100Z,21.039124
2019-03-21T17:01:31.369Z,21.039124
2019-03-21T17:01:35.632Z,21.018982
2019-03-21T17:01:39.929Z,20.98877
2019-03-21T17:01:44.197Z,21.008911
2019-03-21T17:01:48.460Z,20.98877
2019-03-21T17:01:52.730Z,20.978699
2019-03-21T17:01:56.991Z,20.978699
2019-03-21T17:02:01.271Z,20.978699
2019-03-21T17:02:05.512Z,20.958557
2019-03-21T17:02:09.785Z,20.958557
2019-03-21T17:02:14.049Z,20.958557
2019-03-21T17:02:18.315Z,20.948486
2019-03-21T17:02:22.586Z,20.928345
2019-03-21T17:02:26.852Z,20.928345
2019-03-21T17:02:31.117Z,20.908203
2019-03-21T17:02:35.370Z,20.908203
2019-03-21T17:02:39.646Z,20.908203
2019-03-21T17:02:43.904Z,20.908203
2019-03-21T17:02:48.175Z,20.898132
2019-03-21T17:02:52.446Z,20.898132
2019-03-21T17:02:56.705Z,20.888062
2019-03-21T17:03:00.973Z,20.898132
2019-03-21T17:03:05.248Z,20.888062
2019-03-21T17:03:09.507Z,20.86792
2019-03-21T17:03:13.778Z,20.86792
2019-03-21T17:03:18.042Z,20.86792
2019-03-21T17:03:22.315Z,20.857849
2019-03-21T17:03:26.579Z,20.837708
2019-03-21T17:03:30.889Z,20.837708
2019-03-21T17:03:35.118Z,20.837708
2019-03-21T17:03:39.379Z,20.837708
2019-03-21T17:03:43.646Z,20.857849
2019-03-21T17:03:47.908Z,20.837708
2019-03-21T17:03:52.179Z,20.857849
2019-03-21T17:03:56.448Z,20.837708
2019-03-21T17:04:00.712Z,20.857849
2019-03-21T17:04:04.980Z,20.857849
2019-03-21T17:04:09.257Z,20.837708
2019-03-21T17:04:13.513Z,20.837708
2019-03-21T17:04:17.775Z,20.857849
2019-03-21T17:04:22.045Z,20.857849
2019-03-21T17:04:26.311Z,20.857849
2019-03-21T17:04:30.592Z,20.837708
2019-03-21T17:04:34.857Z,20.837708
2019-03-21T17:04:39.112Z,20.837708
2019-03-21T17:04:43.399Z,20.837708
2019-03-21T17:04:47.639Z,20.837708
2019-03-21T17:04:51.908Z,20.837708
2019-03-21T17:04:56.175Z,20.827637
2019-03-21T17:05:00.568Z,20.837708
2019-03-21T17:05:04.746Z,20.827637
2019-03-21T17:05:08.963Z,20.837708
2019-03-21T17:05:13.231Z,20.827637
2019-03-21T17:05:17.495Z,20.837708
2019-03-21T17:05:22.805Z,20.827637
2019-03-21T17:05:27.015Z,20.857849
2019-03-21T17:05:31.281Z,20.837708
2019-03-21T17:05:35.538Z,20.837708
2019-03-21T17:05:39.809Z,20.857849
2019-03-21T17:05:44.076Z,20.857849
2019-03-21T17:05:48.335Z,20.857849
2019-03-21T17:05:52.601Z,20.86792
2019-03-21T17:05:56.862Z,20.86792
2019-03-21T17:06:01.131Z,20.86792
2019-03-21T17:06:05.401Z,20.86792
2019-03-21T17:06:09.656Z,20.86792
2019-03-21T17:06:13.935Z,20.86792
2019-03-21T17:06:18.206Z,20.86792
2019-03-21T17:06:22.481Z,20.86792
2019-03-21T17:06:26.755Z,20.898132
2019-03-21T17:06:31.019Z,20.888062
2019-03-21T17:06:35.291Z,20.86792
2019-03-21T17:06:39.555Z,20.888062
2019-03-21T17:06:43.825Z,20.86792
2019-03-21T17:06:48.086Z,20.888062
2019-03-21T17:06:52.370Z,20.86792
2019-03-21T17:06:56.633Z,20.888062
2019-03-21T17:07:00.890Z,20.86792
2019-03-21T17:07:05.148Z,20.86792
2019-03-21T17:07:09.410Z,20.86792
2019-03-21T17:07:13.681Z,20.86792
2019-03-21T17:07:17.937Z,20.888062
2019-03-21T17:07:22.201Z,20.86792
2019-03-21T17:07:26.472Z,20.888062
2019-03-21T17:07:30.732Z,20.898132
2019-03-21T17:07:34.999Z,20.898132
2019-03-21T17:07:39.259Z,20.908203
2019-03-21T17:07:43.528Z,20.908203
2019-03-21T17:07:47.786Z,20.908203
2019-03-21T17:07:52.052Z,20.908203
2019-03-21T17:07:56.313Z,20.908203
2019-03-21T17:08:10.312Z,20.908203
2019-03-21T17:08:11.365Z,20.908203
2019-03-21T17:08:12.079Z,20.948486
2019-03-21T17:08:16.338Z,20.928345
2019-03-21T17:08:20.605Z,20.948486
2019-03-21T17:08:24.880Z,20.928345
2019-03-21T17:08:29.149Z,20.958557
2019-03-21T17:08:33.413Z,20.958557
2019-03-21T17:08:37.663Z,20.958557
2019-03-21T17:08:41.930Z,20.958557
2019-03-21T17:08:46.191Z,20.978699
2019-03-21T17:08:50.455Z,20.978699
2019-03-21T17:08:54.721Z,20.98877
2019-03-21T17:08:58.988Z,20.98877
2019-03-21T17:09:03.257Z,20.98877
2019-03-21T17:09:07.522Z,21.018982
2019-03-21T17:09:12.026Z,21.039124
2019-03-21T17:09:16.056Z,21.018982
2019-03-21T17:09:20.320Z,21.018982
2019-03-21T17:09:24.580Z,21.018982
2019-03-21T17:09:28.843Z,21.018982
2019-03-21T17:09:33.117Z,21.039124
2019-03-21T17:09:37.377Z,21.039124
2019-03-21T17:09:41.655Z,21.039124
2019-03-21T17:09:45.914Z,21.049194
2019-03-21T17:09:50.185Z,21.049194
2019-03-21T17:09:54.454Z,21.049194
2019-03-21T17:09:59.700Z,21.059265
2019-03-21T17:10:03.988Z,21.049194
2019-03-21T17:10:08.230Z,21.059265
2019-03-21T17:10:12.495Z,21.049194
2019-03-21T17:10:16.776Z,21.059265
2019-03-21T17:10:21.031Z,21.049194
2019-03-21T17:10:25.316Z,21.059265
2019-03-21T17:10:30.707Z,21.079407
2019-03-21T17:10:33.856Z,21.059265
2019-03-21T17:10:38.080Z,21.049194
2019-03-21T17:10:42.394Z,21.059265
2019-03-21T17:10:46.621Z,21.049194
2019-03-21T17:10:50.870Z,21.049194
2019-03-21T17:10:55.142Z,21.039124
2019-03-21T17:10:59.414Z,21.039124
2019-03-21T17:11:03.701Z,21.039124
2019-03-21T17:11:07.949Z,21.018982
2019-03-21T17:11:12.232Z,21.018982
2019-03-21T17:11:16.492Z,21.018982
2019-03-21T17:11:20.799Z,21.018982
2019-03-21T17:11:25.062Z,21.008911
2019-03-21T17:11:29.298Z,20.98877
2019-03-21T17:11:33.574Z,20.98877
2019-03-21T17:11:37.831Z,20.98877
2019-03-21T17:11:42.093Z,20.978699
2019-03-21T17:11:46.350Z,20.978699
2019-03-21T17:11:50.662Z,20.958557
2019-03-21T17:11:54.884Z,20.958557
2019-03-21T17:11:59.141Z,20.958557
2019-03-21T17:12:03.418Z,20.948486
2019-03-21T17:12:07.662Z,20.928345
2019-03-21T17:12:11.941Z,20.928345
2019-03-21T17:12:16.224Z,20.928345
2019-03-21T17:12:20.472Z,20.908203
2019-03-21T17:12:24.836Z,20.898132
2019-03-21T17:12:29.014Z,20.898132
2019-03-21T17:13:44.475Z,0
2019-03-21T17:13:48.738Z,21.482239
2019-03-21T17:13:53.013Z,21.482239
2019-03-21T17:13:57.336Z,21.462097
2019-03-21T17:14:01.604Z,21.482239
2019-03-21T17:14:05.897Z,21.482239
2019-03-21T17:14:10.144Z,21.452026
2019-03-21T17:14:14.404Z,21.482239
2019-03-21T17:14:18.667Z,21.482239
2019-03-21T17:14:22.935Z,21.462097
2019-03-21T17:14:27.199Z,21.462097
2019-03-21T17:14:31.465Z,21.452026
2019-03-21T17:14:35.729Z,21.462097
2019-03-21T17:14:40.031Z,21.723938
2019-03-21T17:14:44.263Z,23.38562
2019-03-21T17:14:48.526Z,23.848877
2019-03-21T17:14:52.795Z,23.788452
2019-03-21T17:14:57.065Z,23.597107
2019-03-21T17:15:01.348Z,23.305054
2019-03-21T17:15:05.623Z,23.113708
2019-03-21T17:15:09.870Z,22.902222
2019-03-21T17:15:14.142Z,22.690735
2019-03-21T17:15:18.414Z,22.539673
2019-03-21T17:15:22.686Z,22.428894
2019-03-21T17:15:26.952Z,22.348328
2019-03-21T17:15:31.202Z,22.318115
2019-03-21T17:15:35.471Z,22.277832
2019-03-21T17:15:39.743Z,22.287903
2019-03-21T17:15:44.005Z,22.318115
2019-03-21T17:15:48.272Z,22.338257
2019-03-21T17:15:52.555Z,22.368469
2019-03-21T17:15:56.806Z,22.388611
2019-03-21T17:16:01.095Z,22.408752
2019-03-21T17:16:06.354Z,22.428894
2019-03-21T17:16:10.622Z,22.438965
2019-03-21T17:16:14.878Z,22.459106
2019-03-21T17:16:19.134Z,22.459106
2019-03-21T17:16:23.420Z,22.469177
2019-03-21T17:16:27.668Z,22.459106
2019-03-21T17:16:31.930Z,22.469177
2019-03-21T17:16:36.193Z,22.459106
2019-03-21T17:16:40.471Z,22.489319
2019-03-21T17:16:44.725Z,22.469177
2019-03-21T17:16:49.025Z,22.489319
2019-03-21T17:16:53.280Z,22.469177
2019-03-21T17:16:57.527Z,22.49939
2019-03-21T17:17:01.785Z,22.489319
2019-03-21T17:17:06.099Z,22.469177
2019-03-21T17:17:10.328Z,22.459106
2019-03-21T17:17:14.590Z,22.459106
2019-03-21T17:17:18.863Z,22.428894
2019-03-21T17:17:23.141Z,22.428894
2019-03-21T17:17:27.400Z,22.388611
2019-03-21T17:17:31.659Z,22.408752
2019-03-21T17:17:35.926Z,22.388611
2019-03-21T17:17:40.208Z,22.428894
2019-03-21T17:17:44.462Z,22.438965
2019-03-21T17:17:48.723Z,22.469177
2019-03-21T17:17:52.993Z,22.489319
2019-03-21T17:17:57.300Z,22.519531
2019-03-21T17:18:01.566Z,22.529602
2019-03-21T17:18:05.809Z,22.529602
2019-03-21T17:18:10.080Z,22.559814
2019-03-21T17:18:14.762Z,22.539673
2019-03-21T17:18:18.613Z,22.559814
2019-03-21T17:18:22.869Z,22.559814
2019-03-21T17:18:27.168Z,22.539673
2019-03-21T17:18:31.396Z,22.529602
2019-03-21T17:18:35.658Z,22.519531
2019-03-21T17:18:39.934Z,22.519531
2019-03-21T17:18:44.219Z,22.519531
2019-03-21T17:18:48.495Z,22.49939
2019-03-21T17:18:52.770Z,22.489319
2019-03-21T17:18:57.019Z,22.49939
2019-03-21T17:19:01.293Z,22.489319
2019-03-21T17:19:05.554Z,22.49939
2019-03-21T17:19:09.822Z,22.489319
2019-03-21T17:19:14.083Z,22.489319
2019-03-21T17:19:18.349Z,22.489319
2019-03-21T17:19:22.619Z,22.489319
2019-03-21T17:19:26.904Z,22.469177
2019-03-21T17:19:31.174Z,22.469177
2019-03-21T17:19:35.443Z,22.469177
2019-03-21T17:19:39.684Z,22.489319
2019-03-21T17:19:43.956Z,22.459106
2019-03-21T17:19:48.216Z,22.459106
2019-03-21T17:19:52.489Z,22.459106
2019-03-21T17:19:56.755Z,22.469177
2019-03-21T17:20:03.648Z,22.469177
2019-03-21T17:20:05.266Z,22.438965
2019-03-21T17:20:09.585Z,22.438965
2019-03-21T17:20:13.824Z,22.438965
2019-03-21T17:20:18.079Z,22.438965
2019-03-21T17:20:22.353Z,22.438965
2019-03-21T17:20:26.639Z,22.428894
2019-03-21T17:20:30.896Z,22.428894
2019-03-21T17:20:35.141Z,22.438965
2019-03-21T17:20:39.406Z,22.438965
2019-03-21T17:20:43.680Z,22.438965
2019-03-21T17:20:47.930Z,22.459106
2019-03-21T17:20:52.201Z,22.459106
2019-03-21T17:20:56.462Z,22.459106
2019-03-21T17:21:00.723Z,22.459106
2019-03-21T17:21:05.005Z,22.438965
2019-03-21T17:21:10.250Z,22.459106
2019-03-21T17:21:14.519Z,22.459106
2019-03-21T17:21:18.789Z,22.459106
2019-03-21T17:21:23.082Z,22.459106
2019-03-21T17:21:27.324Z,22.428894
2019-03-21T17:21:31.620Z,22.438965
2019-03-21T17:21:35.862Z,22.438965
2019-03-21T17:21:40.114Z,22.438965
2019-03-21T17:21:44.392Z,22.438965
2019-03-21T17:21:48.680Z,22.428894
2019-03-21T17:21:52.942Z,22.428894
2019-03-21T17:21:57.194Z,22.428894
2019-03-21T17:22:01.473Z,22.438965
2019-03-21T17:22:05.724Z,22.459106
2019-03-21T17:22:09.990Z,22.459106
2019-03-21T17:22:14.257Z,22.489319
2019-03-21T17:22:18.582Z,22.519531
2019-03-21T17:22:22.785Z,22.539673
2019-03-21T17:22:27.053Z,22.539673
2019-03-21T17:22:31.327Z,22.559814
2019-03-21T17:22:35.612Z,22.569885
2019-03-21T17:22:39.857Z,22.600098
2019-03-21T17:22:44.197Z,22.620239
2019-03-21T17:22:48.427Z,22.640381